Time;durP1;ratioP1;P1;durP2;ratioP2;P2;SDS_P1;SDS_P2;PMS_P1;PMS_P2;Temp;Humidity;BMP_temperature;BMP_pressure;BME280_temperature;BME280_humidity;BME280_pressure;Samples;Min_cycle;Max_cycle;Signal;HPM_P1;HPM_P2
2021/08/14 00:02:17;;;;;;;10.13;7.87;;;18.90;99.90;;;;;;4440792;32;20509;-75
2021/08/14 00:04:44;;;;;;;12.63;7.87;;;18.90;99.90;;;;;;4440742;32;20193;-75
2021/08/14 00:07:10;;;;;;;12.03;7.23;;;18.90;99.90;;;;;;4440047;32;20191;-75
2021/08/14 00:09:37;;;;;;;11.90;7.57;;;18.80;99.90;;;;;;4439041;32;20391;-76
2021/08/14 00:12:05;;;;;;;11.67;7.77;;;18.80;99.90;;;;;;4440808;32;20392;-76
2021/08/14 00:14:32;;;;;;;10.97;7.60;;;18.80;99.90;;;;;;4439177;32;20401;-75
2021/08/14 00:16:59;;;;;;;12.80;7.73;;;18.80;99.90;;;;;;4439897;32;20212;-75
2021/08/14 00:19:26;;;;;;;11.20;7.63;;;18.70;99.90;;;;;;4439924;32;20130;-75
2021/08/14 00:21:53;;;;;;;10.60;8.00;;;18.70;99.90;;;;;;4438904;32;20448;-75
2021/08/14 00:24:19;;;;;;;10.47;7.70;;;18.70;99.90;;;;;;4440505;32;20468;-76
2021/08/14 00:26:46;;;;;;;14.70;8.00;;;18.70;99.90;;;;;;4440789;32;20131;-75
2021/08/14 00:29:13;;;;;;;12.57;7.70;;;18.70;99.90;;;;;;4438259;32;20511;-77
2021/08/14 00:31:40;;;;;;;10.93;7.83;;;18.70;99.90;;;;;;4440375;32;20201;-75
2021/08/14 00:34:06;;;;;;;11.13;7.57;;;18.70;99.90;;;;;;4440066;32;20410;-75
2021/08/14 00:36:33;;;;;;;11.53;8.07;;;18.70;99.90;;;;;;4440538;32;20126;-75
2021/08/14 00:39:00;;;;;;;10.40;7.40;;;18.60;99.90;;;;;;4439485;32;20156;-75
2021/08/14 00:41:30;;;;;;;13.00;7.90;;;18.60;99.90;;;;;;4438849;32;20180;-75
2021/08/14 00:44:02;;;;;;;10.20;7.47;;;18.50;99.90;;;;;;4440537;32;20131;-75
2021/08/14 00:46:29;;;;;;;11.13;7.53;;;18.50;99.90;;;;;;4439923;32;20223;-76
2021/08/14 00:48:58;;;;;;;12.93;7.70;;;18.50;99.90;;;;;;4440019;32;20537;-75
2021/08/14 00:51:25;;;;;;;11.37;7.60;;;18.60;99.90;;;;;;4438619;32;20122;-75
2021/08/14 00:53:52;;;;;;;12.60;7.63;;;18.50;99.90;;;;;;4438680;32;20153;-75
2021/08/14 00:56:20;;;;;;;11.03;7.90;;;18.50;99.90;;;;;;4440395;32;20203;-75
2021/08/14 00:58:49;;;;;;;11.30;8.07;;;18.50;99.90;;;;;;4438798;32;20154;-75
2021/08/14 01:01:17;;;;;;;12.63;8.23;;;18.50;99.90;;;;;;4439845;32;20193;-75
2021/08/14 01:03:44;;;;;;;12.00;7.50;;;18.40;99.90;;;;;;4438179;32;20460;-75
2021/08/14 01:06:17;;;;;;;11.33;8.17;;;18.40;99.90;;;;;;4440160;32;20378;-75
2021/08/14 01:08:44;;;;;;;10.60;7.47;;;18.40;99.90;;;;;;4440188;32;20171;-76
2021/08/14 01:11:11;;;;;;;10.77;7.90;;;18.40;99.90;;;;;;4438567;32;20180;-75
2021/08/14 01:13:38;;;;;;;12.77;8.10;;;18.40;99.90;;;;;;4440122;32;20182;-75
2021/08/14 01:16:09;;;;;;;11.13;8.03;;;18.40;99.90;;;;;;4439904;32;20168;-75
2021/08/14 01:18:46;;;;;;;11.20;7.40;;;18.40;99.90;;;;;;4439334;32;20162;-75
2021/08/14 01:21:24;;;;;;;11.43;7.73;;;18.40;99.90;;;;;;4439747;32;20350;-75
2021/08/14 01:23:55;;;;;;;12.47;7.80;;;18.40;99.90;;;;;;4440176;32;20142;-75
2021/08/14 01:26:23;;;;;;;9.83;7.60;;;18.40;99.90;;;;;;4439863;32;20122;-76
2021/08/14 01:28:51;;;;;;;11.70;7.60;;;18.40;99.90;;;;;;4437925;32;20534;-75
2021/08/14 01:31:19;;;;;;;13.73;7.87;;;18.40;99.90;;;;;;4439839;32;20184;-75
2021/08/14 01:33:46;;;;;;;9.93;7.80;;;18.30;99.90;;;;;;4438369;32;20149;-75
2021/08/14 01:36:16;;;;;;;10.73;7.60;;;18.30;99.90;;;;;;4440316;32;20123;-76
2021/08/14 01:38:52;;;;;;;11.37;7.80;;;18.30;99.90;;;;;;4440050;32;20135;-76
2021/08/14 01:41:19;;;;;;;10.87;8.10;;;18.30;99.90;;;;;;4437994;32;20142;-76
2021/08/14 01:43:57;;;;;;;10.93;7.60;;;18.30;99.90;;;;;;4439819;32;20134;-76
2021/08/14 01:46:26;;;;;;;11.20;8.07;;;18.30;99.90;;;;;;4438783;32;20520;-76
2021/08/14 01:48:53;;;;;;;11.70;7.77;;;18.30;99.90;;;;;;4440063;32;20380;-77
2021/08/14 01:51:21;;;;;;;9.80;7.33;;;18.30;99.90;;;;;;4438125;32;20153;-76
2021/08/14 01:53:49;;;;;;;11.33;7.63;;;18.30;99.90;;;;;;4439520;32;20135;-76
2021/08/14 01:56:17;;;;;;;12.07;7.80;;;18.20;99.90;;;;;;4439866;32;20196;-76
2021/08/14 01:58:44;;;;;;;12.40;8.13;;;18.20;99.90;;;;;;4442702;32;20492;-76
2021/08/14 02:01:10;;;;;;;10.93;7.70;;;18.20;99.90;;;;;;4442748;32;20453;-76
2021/08/14 02:03:39;;;;;;;12.43;7.63;;;18.20;99.90;;;;;;4443080;32;20153;-76
2021/08/14 02:06:06;;;;;;;11.10;7.60;;;18.10;99.90;;;;;;4442719;32;20229;-77
2021/08/14 02:08:35;;;;;;;11.23;7.60;;;18.10;99.90;;;;;;4440987;32;20185;-75
2021/08/14 02:11:09;;;;;;;9.73;7.63;;;18.10;99.90;;;;;;4440802;32;20581;-76
2021/08/14 02:13:36;;;;;;;13.40;8.00;;;18.10;99.90;;;;;;4440944;32;20126;-76
2021/08/14 02:16:03;;;;;;;12.97;7.90;;;18.10;99.90;;;;;;4440706;32;20177;-76
2021/08/14 02:18:30;;;;;;;13.47;7.97;;;18.10;99.90;;;;;;4441803;32;20169;-76
2021/08/14 02:20:56;;;;;;;12.83;7.90;;;18.00;99.90;;;;;;4442248;32;20135;-75
2021/08/14 02:23:23;;;;;;;11.17;8.10;;;18.00;99.90;;;;;;4442506;32;20127;-75
2021/08/14 02:25:50;;;;;;;12.30;8.00;;;18.00;99.90;;;;;;4440544;32;20127;-75
2021/08/14 02:28:16;;;;;;;10.60;7.87;;;18.00;99.90;;;;;;4441484;32;20214;-75
2021/08/14 02:30:43;;;;;;;11.53;7.90;;;17.90;99.90;;;;;;4440679;32;20464;-75
2021/08/14 02:33:10;;;;;;;11.50;7.93;;;17.90;99.90;;;;;;4442358;32;20157;-76
2021/08/14 02:35:37;;;;;;;11.77;7.93;;;17.90;99.90;;;;;;4441964;32;20153;-76
2021/08/14 02:38:04;;;;;;;12.50;7.93;;;17.90;99.90;;;;;;4442158;32;20123;-75
2021/08/14 02:40:32;;;;;;;13.57;8.10;;;17.90;99.90;;;;;;4441372;32;20190;-76
2021/08/14 02:42:59;;;;;;;10.00;7.60;;;17.90;99.90;;;;;;4442598;32;20391;-77
2021/08/14 02:45:26;;;;;;;11.30;8.00;;;17.80;99.90;;;;;;4442604;32;20176;-77
2021/08/14 02:47:56;;;;;;;12.00;8.20;;;17.80;99.90;;;;;;4442230;32;20218;-76
2021/08/14 02:50:23;;;;;;;12.50;8.53;;;17.80;99.90;;;;;;4442161;32;20172;-76
2021/08/14 02:52:50;;;;;;;14.07;8.23;;;17.80;99.90;;;;;;4440286;32;20456;-77
2021/08/14 02:55:17;;;;;;;10.57;7.37;;;17.80;99.90;;;;;;4441861;32;20135;-77
2021/08/14 02:57:44;;;;;;;10.53;8.07;;;17.80;99.90;;;;;;4441840;32;20151;-76
2021/08/14 03:00:12;;;;;;;12.23;7.97;;;17.80;99.90;;;;;;4440818;32;20135;-75
2021/08/14 03:02:38;;;;;;;10.77;7.60;;;17.70;99.90;;;;;;4440301;32;20437;-76
2021/08/14 03:05:06;;;;;;;12.93;8.27;;;17.70;99.90;;;;;;4440087;32;20432;-76
2021/08/14 03:07:33;;;;;;;12.03;7.50;;;17.70;99.90;;;;;;4441700;32;20221;-76
2021/08/14 03:10:00;;;;;;;10.97;8.10;;;17.70;99.90;;;;;;4441277;32;20176;-76
2021/08/14 03:12:27;;;;;;;15.07;8.70;;;17.70;99.90;;;;;;4440112;32;20464;-76
2021/08/14 03:14:57;;;;;;;11.53;8.13;;;17.70;99.90;;;;;;4441216;32;20401;-76
2021/08/14 03:17:24;;;;;;;12.73;8.37;;;17.70;99.90;;;;;;4439993;32;20461;-76
2021/08/14 03:19:50;;;;;;;12.53;7.83;;;17.70;99.90;;;;;;4441449;32;20428;-77
2021/08/14 03:22:17;;;;;;;11.00;7.83;;;17.70;99.90;;;;;;4440764;32;20147;-76
2021/08/14 03:24:44;;;;;;;14.90;8.10;;;17.70;99.90;;;;;;4441291;32;20287;-76
2021/08/14 03:27:10;;;;;;;12.53;8.57;;;17.60;99.90;;;;;;4441424;32;20207;-77
2021/08/14 03:29:37;;;;;;;12.07;8.03;;;17.60;99.90;;;;;;4440198;32;20143;-76
2021/08/14 03:32:04;;;;;;;10.97;8.03;;;17.70;99.90;;;;;;4439426;32;20134;-75
2021/08/14 03:34:31;;;;;;;11.57;8.10;;;17.60;99.90;;;;;;4441064;32;20122;-76
2021/08/14 03:36:58;;;;;;;13.47;9.07;;;17.60;99.90;;;;;;4441373;32;20127;-76
2021/08/14 03:39:25;;;;;;;11.37;8.77;;;17.60;99.90;;;;;;4439440;32;20471;-76
2021/08/14 03:41:52;;;;;;;11.67;8.47;;;17.60;99.90;;;;;;4439481;32;20134;-75
2021/08/14 03:44:18;;;;;;;13.80;8.53;;;17.60;99.90;;;;;;4441444;32;20122;-75
2021/08/14 03:46:45;;;;;;;11.20;8.13;;;17.50;99.90;;;;;;4440353;32;20135;-77
2021/08/14 03:49:12;;;;;;;13.20;8.63;;;17.50;99.90;;;;;;4441262;32;20492;-77
2021/08/14 03:51:38;;;;;;;11.77;9.10;;;17.60;99.90;;;;;;4439217;32;20123;-77
2021/08/14 03:54:05;;;;;;;11.37;8.40;;;17.60;99.90;;;;;;4439221;32;20421;-76
2021/08/14 03:56:32;;;;;;;10.50;7.70;;;17.60;99.90;;;;;;4441065;32;20177;-76
2021/08/14 03:58:59;;;;;;;12.03;8.23;;;17.60;99.90;;;;;;4438490;32;20151;-77
2021/08/14 04:01:25;;;;;;;11.00;8.53;;;17.60;99.90;;;;;;4440899;32;20130;-76
2021/08/14 04:03:52;;;;;;;11.03;7.70;;;17.60;99.90;;;;;;4440801;32;20226;-76
2021/08/14 04:06:19;;;;;;;11.33;8.37;;;17.70;99.90;;;;;;4438532;32;20149;-76
2021/08/14 04:08:46;;;;;;;13.23;8.50;;;17.70;99.90;;;;;;4440805;32;20139;-75
2021/08/14 04:11:13;;;;;;;11.77;8.67;;;17.70;99.90;;;;;;4440241;32;20218;-75
2021/08/14 04:13:39;;;;;;;13.13;8.23;;;17.70;99.90;;;;;;4441035;32;20119;-77
2021/08/14 04:16:06;;;;;;;10.63;7.97;;;17.70;99.90;;;;;;4440607;32;20208;-77
2021/08/14 04:18:33;;;;;;;12.73;8.87;;;17.80;99.90;;;;;;4439903;32;20153;-76
2021/08/14 04:21:00;;;;;;;13.03;8.60;;;17.80;99.90;;;;;;4439595;32;20126;-76
2021/08/14 04:23:27;;;;;;;14.67;8.80;;;17.80;99.90;;;;;;4440506;32;20130;-76
2021/08/14 04:25:53;;;;;;;13.10;8.60;;;17.90;99.90;;;;;;4440451;32;20175;-76
2021/08/14 04:28:20;;;;;;;13.37;8.27;;;17.90;99.90;;;;;;4439515;32;20163;-76
2021/08/14 04:30:47;;;;;;;13.03;8.57;;;17.90;99.90;;;;;;4440648;32;20123;-76
2021/08/14 04:33:13;;;;;;;14.93;8.67;;;18.00;99.90;;;;;;4440413;32;20135;-76
2021/08/14 04:35:40;;;;;;;11.90;8.90;;;18.00;99.90;;;;;;4440628;32;20123;-76
2021/08/14 04:38:07;;;;;;;15.03;8.70;;;18.10;99.90;;;;;;4440507;32;20123;-76
2021/08/14 04:40:34;;;;;;;14.20;9.23;;;18.20;99.90;;;;;;4440385;32;20448;-76
2021/08/14 04:43:00;;;;;;;13.77;9.00;;;18.20;99.90;;;;;;4440751;32;20127;-76
2021/08/14 04:45:27;;;;;;;12.70;9.07;;;18.30;99.90;;;;;;4438935;32;20139;-76
2021/08/14 04:47:54;;;;;;;12.67;9.13;;;18.30;99.90;;;;;;4440300;32;20170;-76
2021/08/14 04:50:21;;;;;;;12.57;8.60;;;18.40;99.90;;;;;;4440438;32;20172;-75
2021/08/14 04:52:48;;;;;;;13.23;8.80;;;18.50;99.90;;;;;;4440364;32;20183;-76
2021/08/14 04:55:15;;;;;;;15.10;9.13;;;18.50;99.90;;;;;;4440223;32;20191;-75
2021/08/14 04:57:42;;;;;;;12.67;9.00;;;18.60;99.90;;;;;;4440227;32;20195;-75
2021/08/14 05:00:09;;;;;;;12.83;9.10;;;18.60;99.90;;;;;;4438789;32;20179;-76
2021/08/14 05:02:36;;;;;;;14.27;9.07;;;18.70;99.90;;;;;;4440373;32;20215;-75
2021/08/14 05:05:03;;;;;;;14.30;8.77;;;18.80;99.90;;;;;;4440118;32;20190;-75
2021/08/14 05:07:30;;;;;;;14.90;8.67;;;18.90;99.90;;;;;;4440253;32;20185;-76
2021/08/14 05:09:57;;;;;;;12.27;8.47;;;19.00;99.90;;;;;;4440223;32;20420;-76
2021/08/14 05:12:23;;;;;;;12.97;9.10;;;19.10;99.90;;;;;;4440337;32;20186;-76
2021/08/14 05:14:50;;;;;;;12.00;8.67;;;19.30;99.90;;;;;;4433454;32;20158;-77
2021/08/14 05:17:17;;;;;;;16.30;9.10;;;19.40;99.90;;;;;;4426752;32;20193;-77
2021/08/14 05:19:44;;;;;;;11.97;9.00;;;19.40;99.90;;;;;;4435398;32;20154;-80
2021/08/14 05:22:11;;;;;;;14.60;9.20;;;19.50;99.90;;;;;;4438980;32;20360;-77
2021/08/14 05:24:37;;;;;;;13.67;9.50;;;19.50;99.90;;;;;;4439097;32;20207;-82
2021/08/14 05:27:05;;;;;;;11.23;8.30;;;19.60;99.90;;;;;;4439188;32;20204;-78
2021/08/14 05:29:31;;;;;;;12.97;8.97;;;19.60;99.90;;;;;;4437947;32;20153;-79
2021/08/14 05:31:58;;;;;;;11.77;8.40;;;19.70;99.90;;;;;;4439582;32;20130;-76
2021/08/14 05:34:25;;;;;;;14.77;9.07;;;19.80;99.90;;;;;;4443084;32;20435;-79
2021/08/14 05:36:51;;;;;;;15.83;9.17;;;19.80;99.90;;;;;;4438018;32;20219;-78
2021/08/14 05:39:18;;;;;;;16.27;9.00;;;19.80;99.90;;;;;;4442342;32;20396;-79
2021/08/14 05:41:47;;;;;;;12.80;8.33;;;19.90;99.90;;;;;;4440891;32;20496;-79
2021/08/14 05:44:14;;;;;;;12.90;9.20;;;20.00;99.90;;;;;;4433619;32;20185;-79
2021/08/14 05:46:41;;;;;;;15.27;9.27;;;20.00;99.90;;;;;;4427344;32;20247;-78
2021/08/14 05:49:08;;;;;;;12.33;9.23;;;20.10;99.90;;;;;;4424969;32;20147;-79
2021/08/14 05:51:36;;;;;;;14.13;9.87;;;20.10;99.90;;;;;;4426667;32;20188;-78
2021/08/14 05:54:14;;;;;;;13.40;9.33;;;20.10;99.90;;;;;;4428474;32;20226;-79
2021/08/14 05:56:40;;;;;;;15.57;9.27;;;20.20;99.90;;;;;;4437528;32;20202;-80
2021/08/14 05:59:07;;;;;;;12.27;9.20;;;20.40;99.90;;;;;;4441087;32;20512;-82
2021/08/14 06:01:34;;;;;;;15.10;9.27;;;20.50;99.90;;;;;;4441960;32;20150;-81
2021/08/14 06:04:01;;;;;;;13.17;9.70;;;20.70;99.90;;;;;;4442243;32;20166;-81
2021/08/14 06:06:28;;;;;;;13.33;9.93;;;20.70;99.90;;;;;;4437891;32;20147;-77
2021/08/14 06:08:55;;;;;;;12.30;9.03;;;20.80;99.90;;;;;;4441850;32;20142;-79
2021/08/14 06:11:22;;;;;;;12.63;9.30;;;20.80;99.90;;;;;;4439386;32;20222;-79
2021/08/14 06:13:48;;;;;;;13.43;9.40;;;20.80;99.90;;;;;;4442653;32;20199;-78
2021/08/14 06:16:15;;;;;;;13.90;9.10;;;20.80;99.90;;;;;;4440438;32;20199;-80
2021/08/14 06:18:43;;;;;;;14.90;9.50;;;21.00;99.90;;;;;;4442240;32;20175;-80
2021/08/14 06:21:10;;;;;;;12.67;9.43;;;21.10;99.90;;;;;;4440209;32;20460;-80
2021/08/14 06:23:37;;;;;;;14.57;9.60;;;21.20;99.90;;;;;;4437721;32;20195;-80
2021/08/14 06:26:04;;;;;;;12.20;9.37;;;21.20;99.90;;;;;;4442085;32;20158;-79
2021/08/14 06:28:32;;;;;;;12.80;9.37;;;21.30;99.90;;;;;;4441034;32;20199;-83
2021/08/14 06:30:59;;;;;;;12.27;9.10;;;21.50;99.90;;;;;;4429687;32;20191;-78
2021/08/14 06:33:25;;;;;;;12.73;9.53;;;21.50;99.90;;;;;;4424855;32;20181;-78
2021/08/14 06:35:52;;;;;;;15.73;9.60;;;21.60;99.90;;;;;;4433529;32;20143;-79
2021/08/14 06:38:19;;;;;;;12.13;9.83;;;21.70;99.90;;;;;;4438973;32;20155;-78
2021/08/14 06:40:46;;;;;;;15.73;10.30;;;21.80;99.90;;;;;;4442214;32;20155;-78
2021/08/14 06:43:12;;;;;;;12.63;9.17;;;21.80;99.90;;;;;;4441297;32;20127;-78
2021/08/14 06:45:39;;;;;;;15.60;9.57;;;21.80;99.90;;;;;;4440350;32;20194;-79
2021/08/14 06:48:06;;;;;;;13.90;9.57;;;22.00;99.90;;;;;;4439519;32;20149;-78
2021/08/14 06:50:34;;;;;;;13.32;9.52;;;22.10;99.90;;;;;;4441789;32;20138;-79
2021/08/14 06:53:01;;;;;;;13.80;9.90;;;22.30;99.90;;;;;;4438323;32;20170;-81
2021/08/14 06:55:28;;;;;;;15.20;10.47;;;22.40;99.90;;;;;;4426675;32;20503;-80
2021/08/14 06:57:54;;;;;;;13.07;9.63;;;22.40;99.90;;;;;;4426510;32;20155;-80
2021/08/14 07:00:21;;;;;;;18.60;10.27;;;22.40;99.90;;;;;;4426613;32;20420;-80
2021/08/14 07:02:48;;;;;;;13.70;9.80;;;22.60;99.90;;;;;;4426552;32;20135;-79
2021/08/14 07:05:16;;;;;;;13.17;10.30;;;22.70;99.90;;;;;;4426538;32;20127;-80
2021/08/14 07:07:43;;;;;;;15.03;10.10;;;22.80;99.90;;;;;;4424295;32;20477;-79
2021/08/14 07:10:10;;;;;;;15.60;9.80;;;22.90;99.90;;;;;;4426202;32;20157;-79
2021/08/14 07:12:37;;;;;;;17.53;10.37;;;23.00;99.90;;;;;;4425541;32;20135;-80
2021/08/14 07:15:06;;;;;;;15.17;10.27;;;23.10;99.90;;;;;;4425465;32;20464;-80
2021/08/14 07:17:33;;;;;;;15.88;10.95;;;23.10;99.90;;;;;;4424987;32;20123;-80
2021/08/14 07:20:00;;;;;;;14.20;10.35;;;23.30;99.90;;;;;;4424183;32;20124;-79
2021/08/14 07:22:27;;;;;;;15.23;10.43;;;23.40;99.90;;;;;;4425471;32;20158;-79
2021/08/14 07:24:54;;;;;;;16.23;10.50;;;23.50;99.90;;;;;;4424732;32;20203;-78
2021/08/14 07:27:21;;;;;;;15.10;10.48;;;23.60;99.90;;;;;;4425873;32;20135;-79
2021/08/14 07:29:47;;;;;;;15.55;10.80;;;23.70;99.90;;;;;;4425072;32;20147;-79
2021/08/14 07:32:14;;;;;;;18.00;10.98;;;23.70;99.90;;;;;;4425919;32;20139;-80
2021/08/14 07:34:41;;;;;;;14.27;10.30;;;23.70;99.90;;;;;;4426400;32;20124;-78
2021/08/14 07:37:08;;;;;;;14.80;10.80;;;23.90;99.90;;;;;;4426159;32;20123;-79
2021/08/14 07:39:35;;;;;;;15.73;10.98;;;24.00;99.90;;;;;;4424239;32;20159;-79
2021/08/14 07:42:01;;;;;;;17.10;11.82;;;24.00;99.90;;;;;;4425905;32;20211;-79
2021/08/14 07:44:28;;;;;;;17.52;11.75;;;24.20;99.90;;;;;;4424289;32;20127;-79
2021/08/14 07:47:13;;;;;;;14.60;10.85;;;24.30;99.90;;;;;;4425658;32;20176;-79
2021/08/14 07:49:40;;;;;;;16.17;11.12;;;24.40;99.90;;;;;;4425859;32;20127;-79
2021/08/14 07:52:08;;;;;;;18.10;10.80;;;24.50;99.90;;;;;;4423910;32;20184;-79
2021/08/14 07:54:35;;;;;;;14.98;11.18;;;24.60;99.90;;;;;;4423892;32;20511;-80
2021/08/14 07:57:03;;;;;;;15.68;11.73;;;24.70;99.90;;;;;;4423780;32;20468;-79
2021/08/14 07:59:29;;;;;;;15.38;11.10;;;24.80;99.90;;;;;;4425517;32;20150;-80
2021/08/14 08:01:56;;;;;;;16.25;11.18;;;25.00;99.90;;;;;;4423957;32;20135;-79
2021/08/14 08:04:23;;;;;;;15.02;11.05;;;24.90;99.90;;;;;;4425929;32;20128;-79
2021/08/14 08:06:50;;;;;;;15.77;11.45;;;25.00;99.90;;;;;;4425848;32;20127;-79
2021/08/14 08:09:16;;;;;;;14.73;11.18;;;25.20;99.90;;;;;;4425294;32;20394;-80
2021/08/14 08:11:43;;;;;;;16.77;11.10;;;25.30;99.90;;;;;;4424782;32;20529;-79
2021/08/14 08:14:10;;;;;;;15.13;10.82;;;25.60;99.90;;;;;;4425460;32;20172;-79
2021/08/14 08:16:37;;;;;;;16.15;11.18;;;26.20;99.90;;;;;;4426079;32;20449;-79
2021/08/14 08:19:03;;;;;;;16.37;11.40;;;26.80;99.90;;;;;;4438814;32;20169;-78
2021/08/14 08:21:30;;;;;;;15.60;11.48;;;27.40;99.90;;;;;;4440446;32;20191;-79
2021/08/14 08:23:57;;;;;;;15.52;11.48;;;27.80;99.90;;;;;;4438876;32;20126;-79
2021/08/14 08:26:24;;;;;;;16.05;11.27;;;28.30;99.90;;;;;;4439996;32;20138;-79
2021/08/14 08:28:52;;;;;;;17.37;10.45;;;28.70;99.90;;;;;;4439902;32;20610;-79
2021/08/14 08:31:19;;;;;;;13.95;10.52;;;28.90;99.90;;;;;;4440556;32;20385;-79
2021/08/14 08:33:46;;;;;;;17.02;11.20;;;28.60;99.90;;;;;;4440067;32;20131;-79
2021/08/14 08:36:12;;;;;;;18.30;11.48;;;28.60;99.90;;;;;;4440152;32;20162;-79
2021/08/14 08:38:40;;;;;;;18.05;11.70;;;28.20;99.90;;;;;;4440422;32;20247;-79
2021/08/14 08:41:08;;;;;;;15.35;11.45;;;28.40;99.90;;;;;;4439359;32;20195;-78
2021/08/14 08:43:40;;;;;;;16.30;10.80;;;28.80;99.90;;;;;;4440056;32;20139;-80
2021/08/14 08:46:10;;;;;;;13.95;10.82;;;29.40;99.90;;;;;;4438576;32;20146;-79
2021/08/14 08:48:43;;;;;;;19.30;11.30;;;30.00;99.90;;;;;;4438816;32;20127;-78
2021/08/14 08:51:11;;;;;;;17.08;11.77;;;30.20;99.90;;;;;;4438514;32;20214;-79
2021/08/14 08:53:38;;;;;;;16.42;10.90;;;30.40;99.90;;;;;;4440224;32;20206;-78
2021/08/14 08:56:05;;;;;;;15.55;10.70;;;30.90;99.90;;;;;;4439579;32;20126;-79
2021/08/14 08:58:35;;;;;;;14.30;10.10;;;31.00;99.90;;;;;;4438307;32;20203;-79
2021/08/14 09:01:02;;;;;;;17.85;11.52;;;30.90;99.90;;;;;;4438686;32;20445;-79
2021/08/14 09:03:31;;;;;;;15.23;10.27;;;31.50;99.90;;;;;;4440521;32;20172;-79
2021/08/14 09:05:58;;;;;;;19.45;10.68;;;31.60;99.90;;;;;;4439518;32;20156;-79
2021/08/14 09:08:28;;;;;;;12.32;10.20;;;31.30;99.90;;;;;;4438513;32;20127;-79
2021/08/14 09:11:07;;;;;;;17.60;10.18;;;31.50;99.90;;;;;;4440161;32;20127;-78
2021/08/14 09:13:34;;;;;;;12.80;9.95;;;31.30;99.90;;;;;;4439899;32;20155;-79
2021/08/14 09:16:17;;;;;;;17.12;10.05;;;31.40;99.90;;;;;;4440329;32;20480;-78
2021/08/14 09:18:59;;;;;;;12.75;10.10;;;31.70;99.90;;;;;;4439993;32;20467;-78
2021/08/14 09:21:31;;;;;;;14.43;10.88;;;31.40;99.90;;;;;;4438237;32;20189;-78
2021/08/14 09:24:04;;;;;;;16.58;10.57;;;31.60;99.90;;;;;;4438961;32;20447;-78
2021/08/14 09:26:32;;;;;;;14.43;10.13;;;31.70;99.60;;;;;;4440152;32;20134;-78
2021/08/14 09:29:06;;;;;;;13.73;10.23;;;31.80;99.50;;;;;;4438941;32;20158;-78
2021/08/14 09:31:49;;;;;;;13.40;9.23;;;32.00;99.50;;;;;;4439306;32;20178;-78
2021/08/14 09:34:18;;;;;;;13.95;9.88;;;32.50;99.10;;;;;;4439466;32;20142;-78
2021/08/14 09:37:10;;;;;;;11.82;9.68;;;32.30;97.10;;;;;;4438485;32;20138;-79
2021/08/14 09:39:57;;;;;;;13.23;9.80;;;32.50;95.90;;;;;;4437781;32;20126;-79
2021/08/14 09:42:25;;;;;;;14.30;9.70;;;32.60;96.10;;;;;;4439007;32;20189;-78
2021/08/14 09:45:16;;;;;;;13.60;9.70;;;33.00;94.70;;;;;;4439851;32;20126;-79
2021/08/14 09:47:45;;;;;;;13.57;10.05;;;33.40;93.30;;;;;;4440015;32;20145;-79
2021/08/14 09:50:13;;;;;;;14.40;10.15;;;33.30;92.50;;;;;;4439699;32;20145;-80
2021/08/14 09:52:47;;;;;;;14.75;9.45;;;33.50;92.50;;;;;;4440020;32;20226;-79
2021/08/14 09:55:23;;;;;;;15.52;9.85;;;33.90;92.20;;;;;;4439909;32;20469;-79
2021/08/14 09:58:00;;;;;;;14.18;9.32;;;34.00;91.10;;;;;;4437887;32;20146;-79
2021/08/14 10:00:29;;;;;;;13.05;9.77;;;34.20;89.90;;;;;;4438201;32;20177;-79
2021/08/14 10:03:00;;;;;;;14.77;9.63;;;34.40;89.00;;;;;;4437618;32;20240;-79
2021/08/14 10:05:31;;;;;;;11.88;9.15;;;34.70;89.60;;;;;;4438892;32;20130;-79
2021/08/14 10:08:02;;;;;;;12.23;9.27;;;35.10;85.40;;;;;;4439336;32;20131;-79
2021/08/14 10:10:29;;;;;;;13.65;8.98;;;35.10;80.30;;;;;;4439440;32;20130;-79
2021/08/14 10:12:58;;;;;;;11.82;8.80;;;34.70;80.40;;;;;;4437709;32;20456;-78
2021/08/14 10:15:26;;;;;;;10.82;8.52;;;34.70;80.00;;;;;;4437740;32;20170;-79
2021/08/14 10:17:53;;;;;;;11.10;8.90;;;34.50;78.10;;;;;;4440295;32;20195;-79
2021/08/14 10:20:21;;;;;;;10.80;8.25;;;34.30;77.30;;;;;;4441960;32;20190;-79
2021/08/14 10:23:00;;;;;;;10.25;7.97;;;34.00;73.40;;;;;;4442038;32;20142;-79
2021/08/14 10:25:28;;;;;;;13.48;8.10;;;33.90;75.90;;;;;;4442354;32;20175;-79
2021/08/14 10:27:59;;;;;;;12.00;8.55;;;34.10;75.10;;;;;;4441698;32;20341;-79
2021/08/14 10:30:52;;;;;;;11.80;8.82;;;34.30;77.60;;;;;;4440219;32;20155;-79
2021/08/14 10:33:28;;;;;;;12.40;8.10;;;34.50;74.00;;;;;;4442714;32;20460;-80
2021/08/14 10:35:56;;;;;;;10.50;7.78;;;34.60;74.70;;;;;;4442570;32;20157;-80
2021/08/14 10:38:50;;;;;;;12.55;7.85;;;34.80;71.80;;;;;;4441575;32;20390;-79
2021/08/14 10:41:17;;;;;;;15.25;8.55;;;34.70;72.20;;;;;;4441946;32;20190;-79
2021/08/14 10:43:53;;;;;;;11.23;8.95;;;34.50;72.00;;;;;;4442027;32;20184;-79
2021/08/14 10:46:48;;;;;;;13.15;9.10;;;34.10;74.80;;;;;;4441463;32;20208;-79
2021/08/14 10:49:36;;;;;;;11.32;8.50;;;34.50;72.00;;;;;;4439941;32;20492;-79
2021/08/14 10:52:03;;;;;;;11.32;8.25;;;34.50;74.30;;;;;;4439898;32;20131;-80
2021/08/14 10:54:30;;;;;;;13.68;9.40;;;35.10;71.90;;;;;;4440265;32;20122;-80
2021/08/14 10:57:01;;;;;;;11.40;8.32;;;35.10;70.70;;;;;;4428480;32;20593;-79
2021/08/14 10:59:34;;;;;;;10.82;8.27;;;34.80;69.00;;;;;;4429205;32;20166;-79
2021/08/14 11:02:10;;;;;;;11.90;8.50;;;34.50;71.00;;;;;;4440891;32;20162;-79
2021/08/14 11:04:41;;;;;;;12.85;8.55;;;34.50;70.60;;;;;;4440165;32;20130;-78
2021/08/14 11:07:17;;;;;;;9.10;7.50;;;34.50;71.60;;;;;;4440197;32;20224;-77
2021/08/14 11:09:53;;;;;;;11.50;7.62;;;34.90;66.50;;;;;;4439076;32;20386;-75
2021/08/14 11:12:43;;;;;;;12.45;8.75;;;35.40;67.70;;;;;;4439672;32;20202;-73
2021/08/14 11:15:22;;;;;;;13.93;8.82;;;35.20;66.70;;;;;;4441177;32;20222;-74
2021/08/14 11:17:50;;;;;;;10.32;8.30;;;34.90;68.00;;;;;;4441286;32;20153;-74
2021/08/14 11:20:20;;;;;;;10.95;8.70;;;34.90;68.60;;;;;;4441317;32;20131;-74
2021/08/14 11:22:52;;;;;;;10.82;8.40;;;35.30;68.70;;;;;;4438806;32;20150;-74
2021/08/14 11:25:26;;;;;;;9.20;7.90;;;35.60;68.40;;;;;;4441561;32;20193;-75
2021/08/14 11:28:04;;;;;;;12.37;8.45;;;35.50;66.70;;;;;;4439407;32;20204;-74
2021/08/14 11:30:38;;;;;;;11.98;8.32;;;35.60;63.80;;;;;;4439039;32;20468;-74
2021/08/14 11:33:07;;;;;;;10.80;7.97;;;35.40;64.00;;;;;;4434651;32;20212;-75
2021/08/14 11:35:36;;;;;;;10.30;8.23;;;35.50;64.90;;;;;;4435470;32;20454;-75
2021/08/14 11:38:05;;;;;;;11.20;7.90;;;34.90;64.10;;;;;;4439463;32;20143;-74
2021/08/14 11:40:38;;;;;;;9.82;8.00;;;34.70;64.30;;;;;;4439967;32;20134;-73
2021/08/14 11:43:10;;;;;;;10.23;8.07;;;34.70;64.60;;;;;;4437752;32;20183;-77
2021/08/14 11:45:39;;;;;;;11.50;8.18;;;34.60;63.50;;;;;;4432657;32;20151;-76
2021/08/14 11:53:11;;;;;;;8.75;7.50;;;34.60;62.90;;;;;;4383931;32;20189;-75
2021/08/14 11:59:59;;;;;;;11.50;7.90;;;34.60;64.40;;;;;;4258607;33;20197;-75
2021/08/14 12:06:15;;;;;;;10.60;7.75;;;35.30;62.80;;;;;;4203573;34;20231;-78
2021/08/14 12:09:12;;;;;;;10.68;8.07;;;34.80;62.70;;;;;;4246700;33;20162;-77
2021/08/14 12:11:49;;;;;;;10.40;8.00;;;34.40;63.40;;;;;;4258647;33;20170;-75
2021/08/14 12:14:50;;;;;;;11.63;8.20;;;33.80;65.10;;;;;;4251077;33;20197;-76
2021/08/14 12:17:17;;;;;;;13.38;8.55;;;34.20;64.90;;;;;;4226654;34;20266;-77
2021/08/14 12:19:55;;;;;;;14.50;8.57;;;33.80;63.90;;;;;;4218763;34;20230;-77
2021/08/14 12:22:28;;;;;;;12.25;8.45;;;33.70;65.00;;;;;;4216398;34;20592;-78
2021/08/14 12:24:54;;;;;;;12.37;8.93;;;33.30;65.90;;;;;;4230729;33;20152;-78
2021/08/14 12:27:32;;;;;;;12.13;8.48;;;33.10;68.50;;;;;;4256868;33;20596;-78
2021/08/14 12:30:21;;;;;;;11.88;8.60;;;33.50;68.30;;;;;;4284920;33;20182;-78
2021/08/14 12:32:53;;;;;;;10.63;8.32;;;33.80;68.20;;;;;;4316527;33;20223;-78
2021/08/14 12:35:23;;;;;;;11.98;9.10;;;34.40;66.50;;;;;;4329178;33;20423;-77
2021/08/14 12:37:51;;;;;;;10.85;8.90;;;34.60;66.00;;;;;;4332470;33;20212;-79
2021/08/14 12:40:22;;;;;;;11.07;8.73;;;34.40;64.30;;;;;;4341284;33;20156;-79
2021/08/14 12:42:49;;;;;;;12.63;9.63;;;34.60;63.90;;;;;;4340804;33;20199;-78
2021/08/14 12:45:22;;;;;;;14.13;8.65;;;34.60;63.20;;;;;;4337547;33;20203;-77
2021/08/14 12:47:52;;;;;;;11.57;9.25;;;34.90;64.10;;;;;;4345304;33;20520;-78
2021/08/14 12:50:25;;;;;;;14.02;9.50;;;34.70;63.40;;;;;;4347305;33;20226;-78
2021/08/14 12:52:55;;;;;;;10.75;8.95;;;34.70;63.30;;;;;;4353818;32;20160;-78
2021/08/14 12:55:31;;;;;;;14.60;9.48;;;34.90;65.50;;;;;;4392211;32;20171;-78
2021/08/14 12:58:03;;;;;;;14.00;9.00;;;35.20;64.10;;;;;;4391023;32;20171;-79
2021/08/14 13:00:30;;;;;;;12.50;8.82;;;35.00;63.80;;;;;;4384643;32;20458;-78